sensor_id;sensor_type;location;lat;lon;timestamp;P1;durP1;ratioP1;P2;durP2;ratioP2
69789;SDS011;57064;52.046;4.800;2023-05-27T00:01:26;16.35;;;4.57;;
69789;SDS011;57064;52.046;4.800;2023-05-27T00:03:52;16.60;;;3.90;;
69789;SDS011;57064;52.046;4.800;2023-05-27T00:06:18;15.98;;;4.10;;
69789;SDS011;57064;52.046;4.800;2023-05-27T00:08:46;17.70;;;3.63;;
69789;SDS011;57064;52.046;4.800;2023-05-27T00:11:12;9.85;;;4.25;;
69789;SDS011;57064;52.046;4.800;2023-05-27T00:13:38;13.90;;;3.97;;
69789;SDS011;57064;52.046;4.800;2023-05-27T00:16:04;14.48;;;3.67;;
69789;SDS011;57064;52.046;4.800;2023-05-27T00:18:30;13.48;;;3.88;;
69789;SDS011;57064;52.046;4.800;2023-05-27T00:20:58;15.07;;;4.38;;
69789;SDS011;57064;52.046;4.800;2023-05-27T00:23:24;12.45;;;3.22;;
69789;SDS011;57064;52.046;4.800;2023-05-27T00:25:50;16.15;;;3.78;;
69789;SDS011;57064;52.046;4.800;2023-05-27T00:28:16;13.13;;;4.00;;
69789;SDS011;57064;52.046;4.800;2023-05-27T00:30:43;17.88;;;3.95;;
69789;SDS011;57064;52.046;4.800;2023-05-27T00:33:09;14.98;;;4.82;;
69789;SDS011;57064;52.046;4.800;2023-05-27T00:35:35;12.70;;;3.30;;
69789;SDS011;57064;52.046;4.800;2023-05-27T00:38:01;13.18;;;3.40;;
69789;SDS011;57064;52.046;4.800;2023-05-27T00:40:30;10.85;;;3.33;;
69789;SDS011;57064;52.046;4.800;2023-05-27T00:42:57;13.40;;;3.47;;
69789;SDS011;57064;52.046;4.800;2023-05-27T00:45:23;14.98;;;3.63;;
69789;SDS011;57064;52.046;4.800;2023-05-27T00:47:49;14.02;;;3.63;;
69789;SDS011;57064;52.046;4.800;2023-05-27T00:50:16;16.23;;;4.53;;
69789;SDS011;57064;52.046;4.800;2023-05-27T00:52:42;19.75;;;4.15;;
69789;SDS011;57064;52.046;4.800;2023-05-27T00:55:08;10.38;;;3.53;;
69789;SDS011;57064;52.046;4.800;2023-05-27T00:57:35;14.77;;;4.28;;
69789;SDS011;57064;52.046;4.800;2023-05-27T01:00:02;12.63;;;3.40;;
69789;SDS011;57064;52.046;4.800;2023-05-27T01:02:33;14.50;;;3.53;;
69789;SDS011;57064;52.046;4.800;2023-05-27T01:04:59;16.77;;;4.13;;
69789;SDS011;57064;52.046;4.800;2023-05-27T01:07:28;15.60;;;3.85;;
69789;SDS011;57064;52.046;4.800;2023-05-27T01:10:14;14.65;;;3.70;;
69789;SDS011;57064;52.046;4.800;2023-05-27T01:12:59;11.40;;;3.80;;
69789;SDS011;57064;52.046;4.800;2023-05-27T01:15:30;14.57;;;5.20;;
69789;SDS011;57064;52.046;4.800;2023-05-27T01:17:57;14.82;;;4.10;;
69789;SDS011;57064;52.046;4.800;2023-05-27T01:20:28;13.38;;;3.67;;
69789;SDS011;57064;52.046;4.800;2023-05-27T01:22:54;17.48;;;3.85;;
69789;SDS011;57064;52.046;4.800;2023-05-27T01:25:22;19.83;;;4.13;;
69789;SDS011;57064;52.046;4.800;2023-05-27T01:27:49;12.45;;;3.42;;
69789;SDS011;57064;52.046;4.800;2023-05-27T01:30:15;11.63;;;4.20;;
69789;SDS011;57064;52.046;4.800;2023-05-27T01:38:01;12.75;;;3.80;;
69789;SDS011;57064;52.046;4.800;2023-05-27T01:40:32;20.67;;;4.00;;
69789;SDS011;57064;52.046;4.800;2023-05-27T01:42:59;15.70;;;4.13;;
69789;SDS011;57064;52.046;4.800;2023-05-27T01:45:25;15.35;;;4.07;;
69789;SDS011;57064;52.046;4.800;2023-05-27T01:47:51;11.75;;;4.07;;
69789;SDS011;57064;52.046;4.800;2023-05-27T01:50:17;13.55;;;3.53;;
69789;SDS011;57064;52.046;4.800;2023-05-27T01:52:44;11.77;;;3.58;;
69789;SDS011;57064;52.046;4.800;2023-05-27T01:55:10;11.27;;;3.58;;
69789;SDS011;57064;52.046;4.800;2023-05-27T01:57:36;17.15;;;3.83;;
69789;SDS011;57064;52.046;4.800;2023-05-27T02:00:03;15.40;;;4.15;;
69789;SDS011;57064;52.046;4.800;2023-05-27T02:02:30;14.57;;;3.97;;
69789;SDS011;57064;52.046;4.800;2023-05-27T02:04:56;10.77;;;4.57;;
69789;SDS011;57064;52.046;4.800;2023-05-27T02:07:22;9.93;;;3.75;;
69789;SDS011;57064;52.046;4.800;2023-05-27T02:09:49;15.38;;;3.97;;
69789;SDS011;57064;52.046;4.800;2023-05-27T02:12:15;19.48;;;3.83;;
69789;SDS011;57064;52.046;4.800;2023-05-27T02:14:41;15.65;;;4.45;;
69789;SDS011;57064;52.046;4.800;2023-05-27T02:17:07;15.73;;;4.15;;
69789;SDS011;57064;52.046;4.800;2023-05-27T02:19:33;13.55;;;4.53;;
69789;SDS011;57064;52.046;4.800;2023-05-27T02:22:00;11.18;;;3.88;;
69789;SDS011;57064;52.046;4.800;2023-05-27T02:24:26;12.75;;;4.03;;
69789;SDS011;57064;52.046;4.800;2023-05-27T02:26:52;25.30;;;5.47;;
69789;SDS011;57064;52.046;4.800;2023-05-27T02:29:18;16.52;;;4.55;;
69789;SDS011;57064;52.046;4.800;2023-05-27T02:31:44;15.07;;;3.97;;
69789;SDS011;57064;52.046;4.800;2023-05-27T02:34:10;23.45;;;4.75;;
69789;SDS011;57064;52.046;4.800;2023-05-27T02:36:36;22.25;;;5.15;;
69789;SDS011;57064;52.046;4.800;2023-05-27T02:39:02;10.30;;;3.92;;
69789;SDS011;57064;52.046;4.800;2023-05-27T02:41:28;11.05;;;4.03;;
69789;SDS011;57064;52.046;4.800;2023-05-27T02:43:54;20.23;;;4.75;;
69789;SDS011;57064;52.046;4.800;2023-05-27T02:46:20;12.32;;;4.05;;
69789;SDS011;57064;52.046;4.800;2023-05-27T02:48:46;20.88;;;4.88;;
69789;SDS011;57064;52.046;4.800;2023-05-27T02:51:12;18.20;;;3.75;;
69789;SDS011;57064;52.046;4.800;2023-05-27T02:53:38;13.68;;;4.00;;
69789;SDS011;57064;52.046;4.800;2023-05-27T02:56:05;16.27;;;4.05;;
69789;SDS011;57064;52.046;4.800;2023-05-27T02:58:31;10.68;;;4.07;;
69789;SDS011;57064;52.046;4.800;2023-05-27T03:00:57;13.98;;;3.95;;
69789;SDS011;57064;52.046;4.800;2023-05-27T03:03:23;16.23;;;5.13;;
69789;SDS011;57064;52.046;4.800;2023-05-27T03:05:50;24.05;;;4.25;;
69789;SDS011;57064;52.046;4.800;2023-05-27T03:08:16;15.73;;;4.05;;
69789;SDS011;57064;52.046;4.800;2023-05-27T03:10:42;16.63;;;4.47;;
69789;SDS011;57064;52.046;4.800;2023-05-27T03:13:08;18.70;;;4.60;;
69789;SDS011;57064;52.046;4.800;2023-05-27T03:15:34;23.73;;;4.65;;
69789;SDS011;57064;52.046;4.800;2023-05-27T03:18:00;16.02;;;5.60;;
69789;SDS011;57064;52.046;4.800;2023-05-27T03:20:28;19.17;;;5.65;;
69789;SDS011;57064;52.046;4.800;2023-05-27T03:22:54;17.25;;;4.63;;
69789;SDS011;57064;52.046;4.800;2023-05-27T03:25:21;17.33;;;4.90;;
69789;SDS011;57064;52.046;4.800;2023-05-27T03:27:47;23.27;;;4.68;;
69789;SDS011;57064;52.046;4.800;2023-05-27T03:30:13;20.77;;;4.78;;
69789;SDS011;57064;52.046;4.800;2023-05-27T03:32:39;18.50;;;5.60;;
69789;SDS011;57064;52.046;4.800;2023-05-27T03:35:05;19.80;;;5.30;;
69789;SDS011;57064;52.046;4.800;2023-05-27T03:37:32;14.25;;;5.30;;
69789;SDS011;57064;52.046;4.800;2023-05-27T03:39:58;16.13;;;4.85;;
69789;SDS011;57064;52.046;4.800;2023-05-27T03:42:24;16.58;;;4.90;;
69789;SDS011;57064;52.046;4.800;2023-05-27T03:44:50;17.70;;;4.85;;
69789;SDS011;57064;52.046;4.800;2023-05-27T03:47:17;18.33;;;4.35;;
69789;SDS011;57064;52.046;4.800;2023-05-27T03:49:45;14.98;;;4.30;;
69789;SDS011;57064;52.046;4.800;2023-05-27T03:52:12;16.92;;;5.63;;
69789;SDS011;57064;52.046;4.800;2023-05-27T03:54:38;19.70;;;5.75;;
69789;SDS011;57064;52.046;4.800;2023-05-27T03:57:05;15.70;;;4.50;;
69789;SDS011;57064;52.046;4.800;2023-05-27T03:59:32;27.38;;;6.85;;
69789;SDS011;57064;52.046;4.800;2023-05-27T04:01:58;17.83;;;3.90;;
69789;SDS011;57064;52.046;4.800;2023-05-27T04:04:25;18.67;;;5.40;;
69789;SDS011;57064;52.046;4.800;2023-05-27T04:06:51;23.00;;;4.85;;
69789;SDS011;57064;52.046;4.800;2023-05-27T04:09:19;12.95;;;4.40;;
69789;SDS011;57064;52.046;4.800;2023-05-27T04:11:45;19.73;;;5.18;;
69789;SDS011;57064;52.046;4.800;2023-05-27T04:14:11;12.43;;;4.03;;
69789;SDS011;57064;52.046;4.800;2023-05-27T04:16:37;17.25;;;4.75;;
69789;SDS011;57064;52.046;4.800;2023-05-27T04:19:06;16.42;;;4.63;;
69789;SDS011;57064;52.046;4.800;2023-05-27T04:21:32;14.90;;;3.85;;
69789;SDS011;57064;52.046;4.800;2023-05-27T04:23:58;13.75;;;4.68;;
69789;SDS011;57064;52.046;4.800;2023-05-27T04:26:24;19.13;;;4.18;;
69789;SDS011;57064;52.046;4.800;2023-05-27T04:28:51;15.60;;;3.83;;
69789;SDS011;57064;52.046;4.800;2023-05-27T04:31:17;20.55;;;4.25;;
69789;SDS011;57064;52.046;4.800;2023-05-27T04:33:43;13.85;;;3.90;;
69789;SDS011;57064;52.046;4.800;2023-05-27T04:36:09;17.00;;;4.03;;
69789;SDS011;57064;52.046;4.800;2023-05-27T04:38:36;9.43;;;3.10;;
69789;SDS011;57064;52.046;4.800;2023-05-27T04:41:02;14.57;;;3.88;;
69789;SDS011;57064;52.046;4.800;2023-05-27T04:43:29;20.25;;;3.53;;
69789;SDS011;57064;52.046;4.800;2023-05-27T04:45:56;11.43;;;3.08;;
69789;SDS011;57064;52.046;4.800;2023-05-27T04:48:24;15.65;;;3.90;;
69789;SDS011;57064;52.046;4.800;2023-05-27T04:50:51;12.38;;;3.13;;
69789;SDS011;57064;52.046;4.800;2023-05-27T04:53:22;11.77;;;3.75;;
69789;SDS011;57064;52.046;4.800;2023-05-27T04:55:48;18.10;;;3.20;;
69789;SDS011;57064;52.046;4.800;2023-05-27T04:58:14;13.55;;;4.20;;
69789;SDS011;57064;52.046;4.800;2023-05-27T05:00:40;9.95;;;3.35;;
69789;SDS011;57064;52.046;4.800;2023-05-27T05:03:12;13.07;;;3.20;;
69789;SDS011;57064;52.046;4.800;2023-05-27T05:05:45;7.13;;;3.22;;
69789;SDS011;57064;52.046;4.800;2023-05-27T05:08:16;11.15;;;3.85;;
69789;SDS011;57064;52.046;4.800;2023-05-27T05:10:46;12.25;;;3.17;;
69789;SDS011;57064;52.046;4.800;2023-05-27T05:13:13;14.20;;;3.53;;
69789;SDS011;57064;52.046;4.800;2023-05-27T05:15:40;9.90;;;3.45;;
69789;SDS011;57064;52.046;4.800;2023-05-27T05:18:08;12.60;;;3.17;;
69789;SDS011;57064;52.046;4.800;2023-05-27T05:20:35;11.65;;;3.58;;
69789;SDS011;57064;52.046;4.800;2023-05-27T05:23:01;12.65;;;3.75;;
69789;SDS011;57064;52.046;4.800;2023-05-27T05:25:27;12.15;;;3.40;;
69789;SDS011;57064;52.046;4.800;2023-05-27T05:27:55;11.68;;;3.60;;
69789;SDS011;57064;52.046;4.800;2023-05-27T05:30:21;11.80;;;3.53;;
69789;SDS011;57064;52.046;4.800;2023-05-27T05:32:48;14.15;;;6.10;;
69789;SDS011;57064;52.046;4.800;2023-05-27T05:35:15;10.38;;;3.15;;
69789;SDS011;57064;52.046;4.800;2023-05-27T05:37:41;10.65;;;2.90;;
69789;SDS011;57064;52.046;4.800;2023-05-27T05:40:07;13.25;;;3.60;;
69789;SDS011;57064;52.046;4.800;2023-05-27T05:42:34;9.70;;;3.95;;
69789;SDS011;57064;52.046;4.800;2023-05-27T05:45:00;14.27;;;3.33;;
69789;SDS011;57064;52.046;4.800;2023-05-27T05:47:26;13.35;;;3.65;;
69789;SDS011;57064;52.046;4.800;2023-05-27T05:49:52;15.10;;;3.88;;
69789;SDS011;57064;52.046;4.800;2023-05-27T05:52:18;11.80;;;3.35;;
69789;SDS011;57064;52.046;4.800;2023-05-27T05:54:44;15.40;;;4.38;;
69789;SDS011;57064;52.046;4.800;2023-05-27T05:57:10;14.60;;;4.38;;
69789;SDS011;57064;52.046;4.800;2023-05-27T05:59:36;12.90;;;3.92;;
69789;SDS011;57064;52.046;4.800;2023-05-27T06:02:03;14.90;;;3.85;;
69789;SDS011;57064;52.046;4.800;2023-05-27T06:04:29;18.75;;;4.18;;
69789;SDS011;57064;52.046;4.800;2023-05-27T06:06:55;22.83;;;4.22;;
69789;SDS011;57064;52.046;4.800;2023-05-27T06:09:21;13.10;;;3.78;;
69789;SDS011;57064;52.046;4.800;2023-05-27T06:11:48;16.33;;;3.78;;
69789;SDS011;57064;52.046;4.800;2023-05-27T06:14:14;17.00;;;4.13;;
69789;SDS011;57064;52.046;4.800;2023-05-27T06:16:40;18.33;;;4.28;;
69789;SDS011;57064;52.046;4.800;2023-05-27T06:19:06;10.88;;;3.28;;
69789;SDS011;57064;52.046;4.800;2023-05-27T06:21:32;19.08;;;4.28;;
69789;SDS011;57064;52.046;4.800;2023-05-27T06:23:58;14.32;;;4.32;;
69789;SDS011;57064;52.046;4.800;2023-05-27T06:26:25;14.15;;;4.05;;
69789;SDS011;57064;52.046;4.800;2023-05-27T06:28:52;12.77;;;4.20;;
69789;SDS011;57064;52.046;4.800;2023-05-27T06:31:18;11.48;;;3.97;;
69789;SDS011;57064;52.046;4.800;2023-05-27T06:33:44;22.85;;;4.20;;
69789;SDS011;57064;52.046;4.800;2023-05-27T06:36:10;11.68;;;5.18;;
69789;SDS011;57064;52.046;4.800;2023-05-27T06:38:36;16.73;;;3.80;;
69789;SDS011;57064;52.046;4.800;2023-05-27T06:41:02;18.02;;;4.13;;
69789;SDS011;57064;52.046;4.800;2023-05-27T06:43:28;16.98;;;3.78;;
69789;SDS011;57064;52.046;4.800;2023-05-27T06:45:54;18.77;;;4.05;;
69789;SDS011;57064;52.046;4.800;2023-05-27T06:48:20;19.13;;;4.82;;
69789;SDS011;57064;52.046;4.800;2023-05-27T06:50:46;13.77;;;3.88;;
69789;SDS011;57064;52.046;4.800;2023-05-27T06:53:13;15.38;;;3.88;;
69789;SDS011;57064;52.046;4.800;2023-05-27T06:55:39;11.65;;;3.50;;
69789;SDS011;57064;52.046;4.800;2023-05-27T06:58:05;21.67;;;5.07;;
69789;SDS011;57064;52.046;4.800;2023-05-27T07:00:31;12.57;;;4.18;;
69789;SDS011;57064;52.046;4.800;2023-05-27T07:02:58;19.08;;;5.03;;
69789;SDS011;57064;52.046;4.800;2023-05-27T07:05:25;18.50;;;4.47;;
69789;SDS011;57064;52.046;4.800;2023-05-27T07:07:52;10.00;;;3.63;;
69789;SDS011;57064;52.046;4.800;2023-05-27T07:10:18;15.98;;;3.47;;
69789;SDS011;57064;52.046;4.800;2023-05-27T07:12:44;21.38;;;6.25;;
69789;SDS011;57064;52.046;4.800;2023-05-27T07:15:10;15.68;;;4.65;;
69789;SDS011;57064;52.046;4.800;2023-05-27T07:17:36;15.75;;;4.93;;
69789;SDS011;57064;52.046;4.800;2023-05-27T07:20:02;15.18;;;4.28;;
69789;SDS011;57064;52.046;4.800;2023-05-27T07:22:29;16.10;;;4.18;;
69789;SDS011;57064;52.046;4.800;2023-05-27T07:24:55;15.15;;;3.95;;
69789;SDS011;57064;52.046;4.800;2023-05-27T07:27:22;13.70;;;3.33;;
69789;SDS011;57064;52.046;4.800;2023-05-27T07:29:48;12.77;;;4.03;;
69789;SDS011;57064;52.046;4.800;2023-05-27T07:32:14;14.95;;;4.03;;
69789;SDS011;57064;52.046;4.800;2023-05-27T07:34:40;11.77;;;5.05;;
69789;SDS011;57064;52.046;4.800;2023-05-27T07:37:06;14.55;;;4.00;;
69789;SDS011;57064;52.046;4.800;2023-05-27T07:39:32;17.95;;;5.32;;
69789;SDS011;57064;52.046;4.800;2023-05-27T07:41:58;9.50;;;3.70;;
69789;SDS011;57064;52.046;4.800;2023-05-27T07:44:24;14.40;;;4.43;;
69789;SDS011;57064;52.046;4.800;2023-05-27T07:46:52;15.05;;;4.07;;
69789;SDS011;57064;52.046;4.800;2023-05-27T07:49:19;15.68;;;4.60;;
69789;SDS011;57064;52.046;4.800;2023-05-27T07:51:45;14.40;;;4.05;;
69789;SDS011;57064;52.046;4.800;2023-05-27T07:54:11;17.25;;;4.47;;
69789;SDS011;57064;52.046;4.800;2023-05-27T07:56:38;22.83;;;5.13;;
69789;SDS011;57064;52.046;4.800;2023-05-27T07:59:04;13.75;;;3.95;;
69789;SDS011;57064;52.046;4.800;2023-05-27T08:01:30;19.77;;;4.32;;
69789;SDS011;57064;52.046;4.800;2023-05-27T08:03:57;17.90;;;5.15;;
69789;SDS011;57064;52.046;4.800;2023-05-27T08:06:24;16.00;;;4.45;;
69789;SDS011;57064;52.046;4.800;2023-05-27T08:08:51;13.55;;;4.90;;
69789;SDS011;57064;52.046;4.800;2023-05-27T08:11:17;17.15;;;4.30;;
69789;SDS011;57064;52.046;4.800;2023-05-27T08:13:43;15.77;;;4.22;;
69789;SDS011;57064;52.046;4.800;2023-05-27T08:16:10;16.52;;;4.65;;
69789;SDS011;57064;52.046;4.800;2023-05-27T08:18:36;13.93;;;4.20;;
69789;SDS011;57064;52.046;4.800;2023-05-27T08:21:02;18.50;;;4.93;;
69789;SDS011;57064;52.046;4.800;2023-05-27T08:23:28;17.20;;;5.40;;
69789;SDS011;57064;52.046;4.800;2023-05-27T08:25:55;14.40;;;5.20;;
69789;SDS011;57064;52.046;4.800;2023-05-27T08:28:21;16.45;;;4.13;;
69789;SDS011;57064;52.046;4.800;2023-05-27T08:30:47;18.17;;;4.32;;
69789;SDS011;57064;52.046;4.800;2023-05-27T08:33:13;18.25;;;4.95;;
69789;SDS011;57064;52.046;4.800;2023-05-27T08:35:39;17.50;;;4.38;;
69789;SDS011;57064;52.046;4.800;2023-05-27T08:38:06;14.73;;;4.35;;
69789;SDS011;57064;52.046;4.800;2023-05-27T08:40:32;16.25;;;4.72;;
69789;SDS011;57064;52.046;4.800;2023-05-27T08:42:58;15.98;;;4.50;;
69789;SDS011;57064;52.046;4.800;2023-05-27T08:45:24;17.17;;;4.82;;
69789;SDS011;57064;52.046;4.800;2023-05-27T08:47:51;11.07;;;3.72;;
69789;SDS011;57064;52.046;4.800;2023-05-27T08:50:18;13.50;;;4.60;;
69789;SDS011;57064;52.046;4.800;2023-05-27T08:52:47;20.88;;;4.65;;
69789;SDS011;57064;52.046;4.800;2023-05-27T08:55:19;16.42;;;5.22;;
69789;SDS011;57064;52.046;4.800;2023-05-27T08:57:49;19.80;;;5.22;;
69789;SDS011;57064;52.046;4.800;2023-05-27T09:00:17;16.58;;;5.13;;
69789;SDS011;57064;52.046;4.800;2023-05-27T09:02:43;16.02;;;3.92;;
69789;SDS011;57064;52.046;4.800;2023-05-27T09:05:09;19.38;;;4.55;;
69789;SDS011;57064;52.046;4.800;2023-05-27T09:07:37;13.20;;;4.13;;
69789;SDS011;57064;52.046;4.800;2023-05-27T09:10:04;11.48;;;4.30;;
69789;SDS011;57064;52.046;4.800;2023-05-27T09:12:34;17.05;;;4.75;;
69789;SDS011;57064;52.046;4.800;2023-05-27T09:15:01;16.40;;;4.72;;
69789;SDS011;57064;52.046;4.800;2023-05-27T09:17:28;18.35;;;4.97;;
69789;SDS011;57064;52.046;4.800;2023-05-27T09:19:54;19.02;;;5.32;;
69789;SDS011;57064;52.046;4.800;2023-05-27T09:22:22;17.60;;;4.53;;
69789;SDS011;57064;52.046;4.800;2023-05-27T09:24:49;16.83;;;5.05;;
69789;SDS011;57064;52.046;4.800;2023-05-27T09:27:18;18.73;;;5.60;;
69789;SDS011;57064;52.046;4.800;2023-05-27T09:29:49;16.83;;;5.03;;
69789;SDS011;57064;52.046;4.800;2023-05-27T09:32:24;15.57;;;5.07;;
69789;SDS011;57064;52.046;4.800;2023-05-27T09:34:54;15.93;;;4.43;;
69789;SDS011;57064;52.046;4.800;2023-05-27T09:37:24;18.77;;;5.57;;
69789;SDS011;57064;52.046;4.800;2023-05-27T09:39:56;18.13;;;5.47;;
69789;SDS011;57064;52.046;4.800;2023-05-27T09:42:23;14.30;;;4.43;;
69789;SDS011;57064;52.046;4.800;2023-05-27T09:44:49;14.05;;;4.47;;
69789;SDS011;57064;52.046;4.800;2023-05-27T09:47:18;15.52;;;5.13;;
69789;SDS011;57064;52.046;4.800;2023-05-27T09:49:47;15.98;;;5.53;;
69789;SDS011;57064;52.046;4.800;2023-05-27T09:52:16;17.85;;;5.20;;
69789;SDS011;57064;52.046;4.800;2023-05-27T09:54:45;17.15;;;4.60;;
69789;SDS011;57064;52.046;4.800;2023-05-27T09:57:13;17.45;;;5.05;;
69789;SDS011;57064;52.046;4.800;2023-05-27T09:59:39;13.23;;;4.65;;
69789;SDS011;57064;52.046;4.800;2023-05-27T10:02:06;11.05;;;4.28;;
69789;SDS011;57064;52.046;4.800;2023-05-27T10:04:32;14.82;;;5.28;;
69789;SDS011;57064;52.046;4.800;2023-05-27T10:06:59;20.60;;;5.13;;
69789;SDS011;57064;52.046;4.800;2023-05-27T10:09:26;15.85;;;4.93;;
69789;SDS011;57064;52.046;4.800;2023-05-27T10:11:52;12.75;;;5.30;;
69789;SDS011;57064;52.046;4.800;2023-05-27T10:14:20;16.85;;;5.43;;
69789;SDS011;57064;52.046;4.800;2023-05-27T10:16:53;12.20;;;5.25;;
69789;SDS011;57064;52.046;4.800;2023-05-27T10:19:21;12.77;;;5.72;;
69789;SDS011;57064;52.046;4.800;2023-05-27T10:21:47;19.83;;;5.15;;
69789;SDS011;57064;52.046;4.800;2023-05-27T10:24:13;15.10;;;4.97;;
69789;SDS011;57064;52.046;4.800;2023-05-27T10:26:40;14.75;;;5.18;;
69789;SDS011;57064;52.046;4.800;2023-05-27T10:29:14;17.77;;;5.57;;
69789;SDS011;57064;52.046;4.800;2023-05-27T10:31:51;11.65;;;4.60;;
69789;SDS011;57064;52.046;4.800;2023-05-27T10:34:17;12.82;;;4.72;;
69789;SDS011;57064;52.046;4.800;2023-05-27T10:36:44;14.43;;;4.90;;
69789;SDS011;57064;52.046;4.800;2023-05-27T10:39:14;15.73;;;5.60;;
69789;SDS011;57064;52.046;4.800;2023-05-27T10:41:42;14.25;;;4.82;;
69789;SDS011;57064;52.046;4.800;2023-05-27T10:44:08;15.45;;;4.90;;
69789;SDS011;57064;52.046;4.800;2023-05-27T10:46:38;14.13;;;5.47;;
69789;SDS011;57064;52.046;4.800;2023-05-27T10:49:10;19.35;;;6.07;;
69789;SDS011;57064;52.046;4.800;2023-05-27T10:54:04;11.13;;;4.90;;
69789;SDS011;57064;52.046;4.800;2023-05-27T10:56:31;16.60;;;5.45;;
69789;SDS011;57064;52.046;4.800;2023-05-27T10:58:58;14.60;;;5.10;;
69789;SDS011;57064;52.046;4.800;2023-05-27T11:01:31;13.18;;;4.85;;
69789;SDS011;57064;52.046;4.800;2023-05-27T11:03:58;15.70;;;5.18;;
69789;SDS011;57064;52.046;4.800;2023-05-27T11:06:24;16.58;;;5.93;;
69789;SDS011;57064;52.046;4.800;2023-05-27T11:08:50;17.45;;;5.82;;
69789;SDS011;57064;52.046;4.800;2023-05-27T11:11:16;14.88;;;5.00;;
69789;SDS011;57064;52.046;4.800;2023-05-27T11:13:43;14.68;;;5.47;;
69789;SDS011;57064;52.046;4.800;2023-05-27T11:16:11;18.35;;;5.88;;
69789;SDS011;57064;52.046;4.800;2023-05-27T11:18:47;17.33;;;5.88;;
69789;SDS011;57064;52.046;4.800;2023-05-27T11:21:14;17.65;;;5.32;;
69789;SDS011;57064;52.046;4.800;2023-05-27T11:23:45;17.10;;;5.22;;
69789;SDS011;57064;52.046;4.800;2023-05-27T11:26:14;19.42;;;6.68;;
69789;SDS011;57064;52.046;4.800;2023-05-27T11:28:47;14.98;;;5.63;;
69789;SDS011;57064;52.046;4.800;2023-05-27T11:31:18;21.63;;;5.35;;
69789;SDS011;57064;52.046;4.800;2023-05-27T11:33:46;15.13;;;5.72;;
69789;SDS011;57064;52.046;4.800;2023-05-27T11:36:15;16.58;;;5.65;;
69789;SDS011;57064;52.046;4.800;2023-05-27T11:38:48;20.65;;;5.78;;
69789;SDS011;57064;52.046;4.800;2023-05-27T11:41:16;16.40;;;5.72;;
69789;SDS011;57064;52.046;4.800;2023-05-27T11:43:49;21.67;;;6.13;;
69789;SDS011;57064;52.046;4.800;2023-05-27T11:46:22;16.73;;;5.55;;
69789;SDS011;57064;52.046;4.800;2023-05-27T11:48:57;22.48;;;5.70;;
69789;SDS011;57064;52.046;4.800;2023-05-27T11:51:27;14.75;;;5.22;;
69789;SDS011;57064;52.046;4.800;2023-05-27T11:53:54;16.55;;;5.45;;
69789;SDS011;57064;52.046;4.800;2023-05-27T11:56:20;14.25;;;4.90;;
69789;SDS011;57064;52.046;4.800;2023-05-27T11:58:47;13.82;;;5.32;;
69789;SDS011;57064;52.046;4.800;2023-05-27T12:01:13;16.33;;;6.40;;
69789;SDS011;57064;52.046;4.800;2023-05-27T12:03:39;11.32;;;4.85;;
69789;SDS011;57064;52.046;4.800;2023-05-27T12:06:06;15.18;;;5.68;;
69789;SDS011;57064;52.046;4.800;2023-05-27T12:08:32;16.45;;;5.75;;
69789;SDS011;57064;52.046;4.800;2023-05-27T12:10:58;11.15;;;4.75;;
69789;SDS011;57064;52.046;4.800;2023-05-27T12:13:24;18.73;;;6.00;;
69789;SDS011;57064;52.046;4.800;2023-05-27T12:15:51;16.40;;;5.40;;
69789;SDS011;57064;52.046;4.800;2023-05-27T12:18:17;19.67;;;5.63;;
69789;SDS011;57064;52.046;4.800;2023-05-27T12:20:43;17.95;;;5.07;;
69789;SDS011;57064;52.046;4.800;2023-05-27T12:23:10;13.13;;;5.20;;
69789;SDS011;57064;52.046;4.800;2023-05-27T12:25:37;17.58;;;5.28;;
69789;SDS011;57064;52.046;4.800;2023-05-27T12:28:05;16.13;;;5.30;;
69789;SDS011;57064;52.046;4.800;2023-05-27T12:30:32;14.02;;;4.95;;
69789;SDS011;57064;52.046;4.800;2023-05-27T12:32:59;17.02;;;5.30;;
69789;SDS011;57064;52.046;4.800;2023-05-27T12:35:28;15.30;;;5.68;;
69789;SDS011;57064;52.046;4.800;2023-05-27T12:37:55;15.00;;;5.50;;
69789;SDS011;57064;52.046;4.800;2023-05-27T12:40:21;22.23;;;6.28;;
69789;SDS011;57064;52.046;4.800;2023-05-27T12:42:47;13.40;;;5.38;;
69789;SDS011;57064;52.046;4.800;2023-05-27T12:45:14;16.83;;;5.43;;
69789;SDS011;57064;52.046;4.800;2023-05-27T12:47:40;13.40;;;5.35;;
69789;SDS011;57064;52.046;4.800;2023-05-27T12:50:06;16.77;;;5.50;;
69789;SDS011;57064;52.046;4.800;2023-05-27T12:52:33;14.18;;;5.05;;
69789;SDS011;57064;52.046;4.800;2023-05-27T12:55:00;18.83;;;6.00;;
69789;SDS011;57064;52.046;4.800;2023-05-27T12:57:26;16.33;;;5.25;;
69789;SDS011;57064;52.046;4.800;2023-05-27T12:59:52;14.82;;;4.68;;
69789;SDS011;57064;52.046;4.800;2023-05-27T13:02:18;18.58;;;5.20;;
69789;SDS011;57064;52.046;4.800;2023-05-27T13:04:47;13.30;;;5.53;;
69789;SDS011;57064;52.046;4.800;2023-05-27T13:07:13;19.38;;;5.75;;
69789;SDS011;57064;52.046;4.800;2023-05-27T13:09:39;11.82;;;4.68;;
69789;SDS011;57064;52.046;4.800;2023-05-27T13:12:05;13.00;;;4.70;;
69789;SDS011;57064;52.046;4.800;2023-05-27T13:14:32;14.70;;;5.00;;
69789;SDS011;57064;52.046;4.800;2023-05-27T13:16:58;18.13;;;4.80;;
69789;SDS011;57064;52.046;4.800;2023-05-27T13:19:24;12.88;;;4.80;;
69789;SDS011;57064;52.046;4.800;2023-05-27T13:21:50;11.10;;;4.45;;
69789;SDS011;57064;52.046;4.800;2023-05-27T13:24:16;14.32;;;5.18;;
69789;SDS011;57064;52.046;4.800;2023-05-27T13:26:43;15.73;;;5.10;;
69789;SDS011;57064;52.046;4.800;2023-05-27T13:29:09;12.82;;;5.53;;
69789;SDS011;57064;52.046;4.800;2023-05-27T13:31:35;12.10;;;5.03;;
69789;SDS011;57064;52.046;4.800;2023-05-27T13:34:02;12.88;;;5.47;;
69789;SDS011;57064;52.046;4.800;2023-05-27T13:36:28;13.93;;;5.57;;
69789;SDS011;57064;52.046;4.800;2023-05-27T13:38:55;11.48;;;4.60;;
69789;SDS011;57064;52.046;4.800;2023-05-27T13:41:22;12.30;;;4.80;;
69789;SDS011;57064;52.046;4.800;2023-05-27T13:43:48;18.50;;;5.43;;
69789;SDS011;57064;52.046;4.800;2023-05-27T13:46:15;17.20;;;5.38;;
69789;SDS011;57064;52.046;4.800;2023-05-27T13:48:42;18.27;;;5.85;;
69789;SDS011;57064;52.046;4.800;2023-05-27T13:51:08;13.88;;;5.40;;
69789;SDS011;57064;52.046;4.800;2023-05-27T13:53:34;13.13;;;4.57;;
69789;SDS011;57064;52.046;4.800;2023-05-27T13:56:00;10.90;;;4.85;;
69789;SDS011;57064;52.046;4.800;2023-05-27T13:58:26;16.58;;;5.05;;
69789;SDS011;57064;52.046;4.800;2023-05-27T14:00:53;16.42;;;4.97;;
69789;SDS011;57064;52.046;4.800;2023-05-27T14:03:20;14.63;;;5.43;;
69789;SDS011;57064;52.046;4.800;2023-05-27T14:05:46;17.33;;;5.35;;
69789;SDS011;57064;52.046;4.800;2023-05-27T14:08:12;13.05;;;6.03;;
69789;SDS011;57064;52.046;4.800;2023-05-27T14:10:38;16.90;;;5.55;;
69789;SDS011;57064;52.046;4.800;2023-05-27T14:13:04;16.02;;;5.45;;
69789;SDS011;57064;52.046;4.800;2023-05-27T14:15:30;11.68;;;4.75;;
69789;SDS011;57064;52.046;4.800;2023-05-27T14:17:56;16.33;;;5.22;;
69789;SDS011;57064;52.046;4.800;2023-05-27T14:20:25;15.88;;;5.35;;
69789;SDS011;57064;52.046;4.800;2023-05-27T14:22:51;13.18;;;4.63;;
69789;SDS011;57064;52.046;4.800;2023-05-27T14:25:17;16.20;;;5.60;;
69789;SDS011;57064;52.046;4.800;2023-05-27T14:27:45;16.35;;;5.00;;
69789;SDS011;57064;52.046;4.800;2023-05-27T14:30:11;14.55;;;4.68;;
69789;SDS011;57064;52.046;4.800;2023-05-27T14:32:38;11.40;;;4.82;;
69789;SDS011;57064;52.046;4.800;2023-05-27T14:35:04;18.55;;;5.18;;
69789;SDS011;57064;52.046;4.800;2023-05-27T14:37:32;11.63;;;5.07;;
69789;SDS011;57064;52.046;4.800;2023-05-27T14:39:58;14.63;;;5.53;;
69789;SDS011;57064;52.046;4.800;2023-05-27T14:42:24;16.77;;;5.95;;